createdAt,value
2018-12-12T00:00:37.939Z,39155.42
2018-12-12T00:02:42.862Z,39167.97
2018-12-12T00:04:47.658Z,39189.22
2018-12-12T00:06:53.816Z,39195.98
2018-12-12T00:09:00.976Z,39197.91
2018-12-12T00:11:05.895Z,39207.57
2018-12-12T00:13:10.807Z,39175.70
2018-12-12T00:15:17.581Z,39228.82
2018-12-12T00:17:22.867Z,39245.23
2018-12-12T00:19:28.442Z,39219.16
2018-12-12T00:21:34.788Z,39206.60
2018-12-12T00:23:40.272Z,39240.41
2018-12-12T00:25:45.031Z,39221.09
2018-12-12T00:27:50.462Z,39216.26
2018-12-12T00:29:55.300Z,39201.77
2018-12-12T00:32:00.130Z,39238.47
2018-12-12T00:34:04.996Z,39271.31
2018-12-12T00:36:09.798Z,39291.59
2018-12-12T00:38:14.500Z,39260.68
2018-12-12T00:40:19.172Z,39269.37
2018-12-12T00:42:24.055Z,39266.48
2018-12-12T00:44:30.164Z,39280.00
2018-12-12T00:46:37.948Z,39272.27
2018-12-12T00:48:43.352Z,39286.76
2018-12-12T00:50:48.055Z,39290.62
2018-12-12T00:52:52.919Z,39297.38
2018-12-12T00:54:58.359Z,39296.42
2018-12-12T00:57:04.095Z,39235.57
2018-12-12T00:59:08.989Z,39290.62
2018-12-12T01:01:13.749Z,39280.00
2018-12-12T01:03:18.443Z,39233.64
2018-12-12T01:05:23.188Z,39277.10
2018-12-12T01:07:27.819Z,39314.77
2018-12-12T01:09:33.058Z,39262.62
2018-12-12T01:11:42.848Z,39276.14
2018-12-12T01:13:47.528Z,39260.68
2018-12-12T01:15:53.421Z,39220.12
2018-12-12T01:17:58.191Z,39197.91
2018-12-12T01:20:03.125Z,39211.43
2018-12-12T01:22:07.836Z,39217.23
2018-12-12T01:24:13.572Z,39178.60
2018-12-12T01:26:19.204Z,39184.39
2018-12-12T01:28:24.622Z,39195.98
2018-12-12T01:30:29.398Z,39170.87
2018-12-12T01:32:34.512Z,39142.87
2018-12-12T01:34:39.258Z,39152.52
2018-12-12T01:36:43.965Z,39161.21
2018-12-12T01:38:48.702Z,39139.00
2018-12-12T01:40:54.233Z,39104.24
2018-12-12T01:42:59.914Z,39082.99
2018-12-12T01:45:05.549Z,39131.28
2018-12-12T01:47:11.354Z,39120.65
2018-12-12T01:49:16.853Z,39126.45
2018-12-12T01:51:21.666Z,39123.55
2018-12-12T01:53:26.433Z,39071.41
2018-12-12T01:55:31.273Z,39076.23
2018-12-12T01:57:36.111Z,39107.13
2018-12-12T01:59:40.827Z,39079.13
2018-12-12T02:01:45.562Z,39141.90
2018-12-12T02:03:50.396Z,39095.55
2018-12-12T02:05:55.094Z,39093.62
2018-12-12T02:08:01.227Z,39124.52
2018-12-12T02:10:07.554Z,39092.65
2018-12-12T02:12:13.031Z,39150.59
2018-12-12T02:14:17.820Z,39139.97
2018-12-12T02:16:22.912Z,39074.30
2018-12-12T02:18:27.664Z,39069.47
2018-12-12T02:20:32.342Z,39021.19
2018-12-12T02:22:37.616Z,39073.34
2018-12-12T02:24:43.058Z,39118.72
2018-12-12T02:26:48.590Z,39131.28
2018-12-12T02:28:53.252Z,39109.07
2018-12-12T02:30:58.608Z,39107.13
2018-12-12T02:33:03.444Z,39117.76
2018-12-12T02:35:09.135Z,39132.24
2018-12-12T02:37:21.449Z,39160.25
2018-12-12T02:39:26.273Z,39141.90
2018-12-12T02:41:30.910Z,39133.21
2018-12-12T02:43:35.586Z,39171.84
2018-12-12T02:45:40.262Z,39143.83
2018-12-12T02:47:45.011Z,39173.77
2018-12-12T02:49:49.827Z,39171.84
2018-12-12T02:51:54.691Z,39195.02
2018-12-12T02:54:00.385Z,39216.26
2018-12-12T02:56:05.177Z,39190.19
2018-12-12T02:58:09.888Z,39167.01
2018-12-12T03:00:14.824Z,39175.70
2018-12-12T03:02:19.522Z,39187.29
2018-12-12T03:04:24.410Z,39183.43
2018-12-12T03:06:29.094Z,39156.39
2018-12-12T03:08:34.167Z,39167.01
2018-12-12T03:10:39.159Z,39167.01
2018-12-12T03:12:44.266Z,39134.18
2018-12-12T03:14:49.858Z,39135.14
2018-12-12T03:16:55.824Z,39136.11
2018-12-12T03:19:01.677Z,39140.93
2018-12-12T03:21:06.590Z,39142.87
2018-12-12T03:23:12.426Z,39144.80
2018-12-12T03:25:18.750Z,39155.42
2018-12-12T03:27:23.590Z,39145.76
2018-12-12T03:29:28.321Z,39151.55
2018-12-12T03:31:33.060Z,39149.62
2018-12-12T03:33:37.896Z,39126.45
2018-12-12T03:35:42.582Z,39120.65
2018-12-12T03:37:47.420Z,39137.07
2018-12-12T03:39:52.196Z,39121.62
2018-12-12T03:41:57.143Z,39095.55
2018-12-12T03:44:02.135Z,39132.24
2018-12-12T03:46:07.746Z,39082.99
2018-12-12T03:48:12.466Z,39125.48
2018-12-12T03:50:17.202Z,39114.86
2018-12-12T03:52:21.872Z,39116.79
2018-12-12T03:54:26.627Z,39111.00
2018-12-12T03:56:32.127Z,39115.82
2018-12-12T03:58:37.990Z,39126.45
2018-12-12T04:00:42.724Z,39101.34
2018-12-12T04:02:47.481Z,39111.96
2018-12-12T04:04:52.231Z,39084.92
2018-12-12T04:06:58.137Z,39118.72
2018-12-12T04:09:03.147Z,39077.20
2018-12-12T04:11:08.614Z,39102.30
2018-12-12T04:13:13.394Z,39131.28
2018-12-12T04:15:18.100Z,39115.82
2018-12-12T04:17:23.458Z,39128.38
2018-12-12T04:19:28.296Z,39115.82
2018-12-12T04:21:33.561Z,39139.97
2018-12-12T04:23:38.411Z,39137.07
2018-12-12T04:25:43.946Z,39128.38
2018-12-12T04:27:49.317Z,39135.14
2018-12-12T04:29:54.077Z,39110.03
2018-12-12T04:31:59.618Z,39128.38
2018-12-12T04:34:04.647Z,39120.65
2018-12-12T04:36:11.068Z,39105.20
2018-12-12T04:38:16.810Z,39153.49
2018-12-12T04:40:22.586Z,39150.59
2018-12-12T04:42:27.486Z,39151.55
2018-12-12T04:44:32.496Z,39161.21
2018-12-12T04:46:37.460Z,39153.49
2018-12-12T04:48:42.459Z,39181.50
2018-12-12T04:50:48.384Z,39174.73
2018-12-12T04:52:53.412Z,39189.22
2018-12-12T04:54:58.631Z,39174.73
2018-12-12T04:57:03.823Z,39147.70
2018-12-12T04:59:10.006Z,39167.01
2018-12-12T05:01:14.919Z,39171.84
2018-12-12T05:03:19.694Z,39185.36
2018-12-12T05:05:24.669Z,39167.97
2018-12-12T05:07:29.444Z,39140.93
2018-12-12T05:09:38.684Z,39275.17
2018-12-12T05:11:54.926Z,39147.70
2018-12-12T05:14:04.672Z,39156.39
2018-12-12T06:18:34.858Z,38972.91
2018-12-12T06:31:44.212Z,38994.15
2018-12-12T08:48:39.538Z,39122.59
2018-12-12T08:53:14.307Z,39116.79
2018-12-12T10:16:02.008Z,39087.82
2018-12-12T11:18:09.126Z,39127.41
2018-12-12T15:23:05.965Z,39063.68
2018-12-12T15:25:12.318Z,39044.36
2018-12-12T15:27:19.230Z,39061.75
2018-12-12T15:29:25.050Z,39051.12
2018-12-12T15:31:31.035Z,39026.02
2018-12-12T15:33:36.253Z,38978.70
2018-12-12T15:35:42.629Z,38993.18
2018-12-12T15:37:47.733Z,39002.84
2018-12-12T15:39:53.054Z,39014.43
2018-12-12T15:41:58.498Z,38977.73
2018-12-12T15:44:03.471Z,39003.81
2018-12-12T15:46:08.472Z,39020.22
2018-12-12T15:48:14.684Z,38973.87
2018-12-12T15:50:19.973Z,38996.08
2018-12-12T15:52:25.067Z,38985.46
2018-12-12T15:54:31.006Z,38965.18
2018-12-12T15:56:37.620Z,38972.91
2018-12-12T15:58:42.860Z,38953.59
2018-12-12T16:00:51.090Z,38964.21
2018-12-12T16:02:56.670Z,38941.04
2018-12-12T16:05:02.085Z,38909.17
2018-12-12T16:07:07.395Z,38926.55
2018-12-12T16:09:13.802Z,38870.55
2018-12-12T16:11:18.830Z,38940.07
2018-12-12T16:13:23.738Z,38947.80
2018-12-12T16:15:28.714Z,38871.51
2018-12-12T16:17:33.733Z,38897.59
2018-12-12T16:19:39.151Z,38924.62
2018-12-12T16:21:44.830Z,38919.79
2018-12-12T16:23:51.179Z,38886.00
2018-12-12T16:25:56.321Z,38896.62
2018-12-12T16:28:03.262Z,38923.66
2018-12-12T16:30:09.426Z,38909.17
2018-12-12T16:32:14.518Z,38899.52
2018-12-12T16:34:20.147Z,38907.24
2018-12-12T16:36:25.326Z,38891.79
2018-12-12T16:38:30.702Z,38867.65
2018-12-12T16:40:35.955Z,38899.52
2018-12-12T16:42:43.342Z,38906.27
2018-12-12T16:44:48.932Z,38876.34
2018-12-12T16:46:54.089Z,38899.52
2018-12-12T16:48:59.128Z,38873.45
2018-12-12T16:51:04.451Z,38873.45
2018-12-12T16:53:11.869Z,38908.21
2018-12-12T16:55:17.041Z,38849.30
2018-12-12T16:57:22.227Z,38876.34
2018-12-12T16:59:28.694Z,38872.48
2018-12-12T17:01:34.083Z,38839.65
2018-12-12T17:03:53.717Z,38851.23
2018-12-12T17:05:59.296Z,38847.37
2018-12-12T17:08:05.420Z,38881.17
2018-12-12T17:10:12.572Z,38843.51
2018-12-12T17:12:17.781Z,38837.71
2018-12-12T17:14:28.339Z,38855.10
2018-12-12T17:16:33.612Z,38860.89
2018-12-12T17:18:39.655Z,38863.79
2018-12-12T17:20:45.031Z,38845.44
2018-12-12T17:22:52.698Z,38870.55
2018-12-12T17:24:57.918Z,38843.51
2018-12-12T17:27:03.465Z,38851.23
2018-12-12T17:29:10.350Z,38848.34
2018-12-12T17:31:16.873Z,38842.54
2018-12-12T17:33:24.627Z,38830.96
2018-12-12T17:35:30.066Z,38807.78
2018-12-12T17:37:41.695Z,38815.51
2018-12-12T17:39:47.221Z,38801.02
2018-12-12T17:41:54.168Z,38812.61
2018-12-12T17:43:59.632Z,38797.16
2018-12-12T17:46:05.011Z,38848.34
2018-12-12T17:48:12.418Z,38754.67
2018-12-12T17:50:19.765Z,38745.02
2018-12-12T17:52:26.864Z,38846.41
2018-12-12T17:54:33.809Z,38773.98
2018-12-12T17:56:39.608Z,38787.50
2018-12-12T17:58:45.220Z,38757.57
2018-12-12T18:00:52.791Z,38835.79
2018-12-12T18:02:58.218Z,38785.57
2018-12-12T18:05:04.038Z,38857.03
2018-12-12T18:07:10.782Z,38789.43
2018-12-12T18:09:17.179Z,38751.78
2018-12-12T18:11:24.534Z,38755.64
2018-12-12T18:13:30.765Z,38768.19
2018-12-12T18:15:36.194Z,38770.12
2018-12-12T18:17:42.028Z,38769.16
2018-12-12T18:19:47.555Z,38755.64
2018-12-12T18:21:54.413Z,38752.74
2018-12-12T18:24:00.862Z,38774.95
2018-12-12T18:26:06.036Z,38734.39
2018-12-12T18:28:11.208Z,38754.67
2018-12-12T18:30:16.790Z,38739.22
2018-12-12T18:32:21.838Z,38739.22
2018-12-12T18:34:27.618Z,38717.02
2018-12-12T18:36:32.933Z,38760.46
2018-12-12T18:38:39.048Z,38764.33
2018-12-12T18:40:45.376Z,38772.05
2018-12-12T18:42:51.833Z,38744.05
2018-12-12T18:44:58.218Z,38698.67
2018-12-12T18:47:04.043Z,38743.09
2018-12-12T18:49:10.630Z,38721.84
2018-12-12T18:51:15.672Z,38707.36
2018-12-12T18:53:20.849Z,38733.43
2018-12-12T18:55:26.594Z,38726.67
2018-12-12T18:57:31.623Z,38757.57
2018-12-12T18:59:36.830Z,38718.95
2018-12-12T19:01:42.251Z,38685.15
2018-12-12T19:03:48.846Z,38618.53
2018-12-12T19:05:54.257Z,38656.18
2018-12-12T19:07:59.946Z,38667.77
2018-12-12T19:10:05.828Z,38681.29
2018-12-12T19:12:11.214Z,38703.50
2018-12-12T19:14:18.525Z,38687.08
2018-12-12T19:16:25.553Z,38692.87
2018-12-12T19:18:33.342Z,38693.84
2018-12-12T19:20:38.434Z,37226.48
2018-12-12T19:22:44.904Z,38691.91
2018-12-12T19:24:50.779Z,38675.50
2018-12-12T19:26:56.494Z,38689.98
2018-12-12T19:29:02.198Z,38664.88
2018-12-12T19:31:08.356Z,38677.43
2018-12-12T19:33:15.104Z,38695.77
2018-12-12T19:35:21.211Z,38654.25
2018-12-12T19:37:28.864Z,38684.19
2018-12-12T19:39:34.756Z,38678.39
2018-12-12T19:41:39.780Z,38633.01
2018-12-12T19:43:46.565Z,38624.32
2018-12-12T19:45:55.556Z,38645.56
2018-12-12T19:48:04.587Z,38629.15
2018-12-12T19:50:10.330Z,38634.94
2018-12-12T19:52:16.642Z,38669.70
2018-12-12T19:54:22.624Z,38635.91
2018-12-12T19:56:28.092Z,38643.63
2018-12-12T19:58:37.157Z,38655.22
2018-12-12T20:00:49.119Z,38668.74
2018-12-12T20:03:00.028Z,38662.94
2018-12-12T20:05:12.341Z,38685.15
2018-12-12T20:07:21.709Z,38667.77
2018-12-12T20:09:30.768Z,38572.18
2018-12-12T20:11:40.354Z,38723.77
2018-12-12T20:13:51.507Z,38741.16
2018-12-12T20:16:01.028Z,38759.50
2018-12-12T20:18:09.798Z,38751.78
2018-12-12T20:20:17.051Z,38761.43
2018-12-12T20:22:25.917Z,38814.54
2018-12-12T20:24:39.555Z,38818.40
2018-12-12T20:26:48.991Z,38851.23
2018-12-12T20:29:00.086Z,38840.61
2018-12-12T20:31:11.590Z,38834.82
2018-12-12T20:33:21.503Z,38736.33
2018-12-12T20:35:32.137Z,38843.51
2018-12-12T20:37:43.410Z,38863.79
2018-12-12T20:39:56.313Z,38894.69
2018-12-12T20:42:07.862Z,38886.00
2018-12-12T20:44:15.536Z,38866.68
2018-12-12T20:46:22.295Z,38883.10
2018-12-12T20:48:32.746Z,38869.58
2018-12-12T20:50:43.222Z,38901.45
2018-12-12T20:52:49.432Z,38886.00
2018-12-12T20:54:58.116Z,38912.07
2018-12-12T20:57:08.759Z,38889.86
2018-12-12T20:59:17.361Z,38909.17
2018-12-12T21:01:25.867Z,38897.59
2018-12-12T21:03:36.546Z,38934.28
2018-12-12T21:05:54.342Z,38901.45
2018-12-12T21:07:59.426Z,38909.17
2018-12-12T21:10:10.801Z,38923.66
2018-12-12T21:12:20.671Z,38971.94
2018-12-12T21:14:30.337Z,38884.07
2018-12-12T21:16:37.410Z,38859.93
2018-12-12T21:18:46.527Z,38902.41
2018-12-12T21:20:58.813Z,38912.07
2018-12-12T21:23:05.794Z,38892.76
2018-12-12T21:25:13.687Z,38917.86
2018-12-12T21:27:21.769Z,38942.00
2018-12-12T21:29:28.133Z,38924.62
2018-12-12T21:31:35.222Z,38931.38
2018-12-12T21:33:41.801Z,38956.49
2018-12-12T21:35:51.579Z,38956.49
2018-12-12T21:37:58.488Z,38966.14
2018-12-12T21:40:03.913Z,38948.76
2018-12-12T21:42:09.997Z,38977.73
2018-12-12T21:44:15.486Z,38954.56
2018-12-12T21:46:22.226Z,38970.97
2018-12-12T21:48:28.546Z,38969.04
2018-12-12T21:50:34.723Z,38958.42
2018-12-12T21:55:11.545Z,38981.60
2018-12-12T21:57:17.565Z,38975.80
2018-12-12T21:59:22.993Z,38992.22
2018-12-12T22:01:31.066Z,38997.05
2018-12-12T22:03:36.553Z,38983.53
2018-12-12T22:05:42.254Z,38998.01
2018-12-12T22:07:47.852Z,39003.81
2018-12-12T22:09:53.399Z,39012.50
2018-12-12T22:11:58.753Z,39026.02
2018-12-12T22:14:04.318Z,39022.15
2018-12-12T22:16:11.578Z,39026.02
2018-12-12T22:18:17.769Z,38998.01
2018-12-12T22:20:23.861Z,39010.57
2018-12-12T22:22:29.417Z,39030.84
2018-12-12T22:24:35.612Z,38998.98
2018-12-12T22:26:42.065Z,39021.19
2018-12-12T22:28:48.553Z,39025.05
2018-12-12T22:30:55.325Z,38990.29
2018-12-12T22:33:00.733Z,39046.30
2018-12-12T22:35:06.682Z,39082.99
2018-12-12T22:37:13.400Z,39031.81
2018-12-12T22:39:18.733Z,39021.19
2018-12-12T22:41:24.374Z,39007.67
2018-12-12T22:43:29.380Z,39045.33
2018-12-12T22:45:34.730Z,38993.18
2018-12-12T22:47:41.454Z,39113.89
2018-12-12T22:49:47.642Z,39025.05
2018-12-12T22:51:53.513Z,39032.78
2018-12-12T22:53:59.990Z,39081.06
2018-12-12T22:56:05.459Z,39102.30
2018-12-12T22:58:12.355Z,39040.50
2018-12-12T23:06:43.657Z,39026.02
2018-12-12T23:08:48.935Z,39016.36
2018-12-12T23:10:54.014Z,39033.74
2018-12-12T23:12:59.192Z,39008.64
2018-12-12T23:15:05.197Z,39004.77
2018-12-12T23:17:10.641Z,39003.81
2018-12-12T23:19:15.985Z,39007.67
2018-12-12T23:21:21.488Z,38981.60
2018-12-12T23:23:26.867Z,39008.64
2018-12-12T23:25:32.396Z,39003.81
2018-12-12T23:27:38.489Z,39010.57
2018-12-12T23:29:43.715Z,39013.46
2018-12-12T23:31:51.177Z,39005.74
2018-12-12T23:33:57.518Z,39031.81
2018-12-12T23:36:04.276Z,39003.81
2018-12-12T23:38:09.832Z,39030.84
2018-12-12T23:40:15.840Z,39012.50
2018-12-12T23:42:21.226Z,39035.68
2018-12-12T23:44:26.479Z,39038.57
2018-12-12T23:46:31.988Z,39010.57
2018-12-12T23:48:36.891Z,38990.29
2018-12-12T23:50:42.027Z,39027.95
2018-12-12T23:52:47.103Z,39014.43
2018-12-12T23:54:52.590Z,39023.12
2018-12-12T23:56:58.110Z,38998.98
2018-12-12T23:59:03.966Z,39025.05
